Time;durP1;ratioP1;P1;durP2;ratioP2;P2;SDS_P1;SDS_P2;PMS_P1;PMS_P2;Temp;Humidity;BMP_temperature;BMP_pressure;BME280_temperature;BME280_humidity;BME280_pressure;Samples;Min_cycle;Max_cycle;Signal;HPM_P1;HPM_P2
2023/05/11 00:00:06;;;;;;;;;1.00;1.00;;;;;12.45;73.08;100915.03;5077408;28;45433;-68
2023/05/11 00:02:31;;;;;;;;;2.00;2.00;;;;;12.57;74.35;100937.19;5077798;28;46002;-67
2023/05/11 00:04:57;;;;;;;;;1.67;1.67;;;;;12.49;74.13;100924.78;5073367;28;45276;-67
2023/05/11 00:07:22;;;;;;;;;3.00;2.00;;;;;12.47;75.38;100931.69;5068973;28;45555;-68
2023/05/11 00:09:48;;;;;;;;;0.33;0.33;;;;;12.37;75.21;100913.91;5078467;28;45377;-67
2023/05/11 00:12:13;;;;;;;;;2.33;1.00;;;;;12.36;74.71;100904.31;5077577;28;46503;-67
2023/05/11 00:14:39;;;;;;;;;2.00;2.00;;;;;12.46;74.33;100914.19;5077003;28;45581;-67
2023/05/11 00:17:05;;;;;;;;;1.00;1.00;;;;;12.28;74.59;100885.75;5078314;28;45448;-68
2023/05/11 00:19:31;;;;;;;;;2.00;1.00;;;;;12.50;74.88;100920.41;5078276;27;45515;-67
2023/05/11 00:21:57;;;;;;;;;1.00;1.00;;;;;12.52;74.55;100916.97;5077241;28;46276;-68
2023/05/11 00:24:24;;;;;;;;;0.67;0.67;;;;;12.55;74.51;100910.94;5078091;28;45271;-67
2023/05/11 00:26:50;;;;;;;;;1.67;1.67;;;;;12.59;74.96;100911.91;5073439;28;45638;-67
2023/05/11 00:29:15;;;;;;;;;1.00;1.00;;;;;12.66;74.17;100906.00;5070929;28;45268;-68
2023/05/11 00:31:41;;;;;;;;;1.25;1.25;;;;;12.69;74.12;100906.06;5077087;28;46184;-67
2023/05/11 00:34:07;;;;;;;;;2.00;1.00;;;;;12.71;74.00;100893.88;5077563;28;45414;-67
2023/05/11 00:36:32;;;;;;;;;1.75;1.00;;;;;12.75;73.98;100893.13;5077496;28;45362;-68
2023/05/11 00:38:58;;;;;;;;;2.00;1.00;;;;;12.74;73.17;100870.38;5077421;28;45346;-68
2023/05/11 00:41:24;;;;;;;;;1.00;1.00;;;;;12.76;73.88;100881.81;5077398;28;45547;-68
2023/05/11 00:43:50;;;;;;;;;1.00;1.00;;;;;12.86;74.08;100898.66;5077302;28;45443;-67
2023/05/11 00:46:16;;;;;;;;;2.00;1.00;;;;;12.79;73.85;100876.63;5077730;28;45404;-67
2023/05/11 00:48:42;;;;;;;;;1.00;0.00;;;;;12.92;75.23;100896.19;5077588;28;45842;-68
2023/05/11 00:51:09;;;;;;;;;2.00;1.00;;;;;12.92;75.98;100894.47;5076000;28;45342;-68
2023/05/11 00:53:35;;;;;;;;;1.00;1.00;;;;;13.02;75.17;100900.81;5076796;28;45596;-67
2023/05/11 00:56:01;;;;;;;;;0.00;0.00;;;;;13.10;75.36;100894.03;5075860;28;45345;-67
2023/05/11 00:58:26;;;;;;;;;2.67;1.00;;;;;13.11;73.37;100873.94;5077275;28;45405;-67
2023/05/11 01:00:52;;;;;;;;;2.00;2.00;;;;;13.22;73.17;100880.34;5077125;28;46657;-68
2023/05/11 01:03:17;;;;;;;;;1.00;1.00;;;;;13.22;72.91;100864.59;5076671;28;45509;-67
2023/05/11 01:06:00;;;;;;;;;1.75;0.75;;;;;13.26;72.35;100869.06;5077444;28;45500;-68
2023/05/11 01:08:41;;;;;;;;;1.75;1.00;;;;;13.25;73.71;100872.56;5077485;28;45497;-68
2023/05/11 01:11:15;;;;;;;;;2.33;1.33;;;;;13.26;73.42;100870.81;5075332;28;48063;-67
2023/05/11 01:13:47;;;;;;;;;1.00;0.00;;;;;13.27;73.00;100872.56;5077468;28;45440;-67
2023/05/11 01:16:23;;;;;;;;;1.00;1.00;;;;;13.23;73.58;100857.59;5077562;28;45277;-68
2023/05/11 01:19:05;;;;;;;;;1.00;1.00;;;;;13.12;75.61;100855.63;5076015;28;45467;-68
2023/05/11 01:21:32;;;;;;;;;1.33;0.33;;;;;12.95;74.80;100846.44;5072063;28;46537;-68
2023/05/11 01:24:10;;;;;;;;;1.00;0.33;;;;;13.03;74.83;100865.91;5067805;28;45428;-68
2023/05/11 01:26:54;;;;;;;;;1.00;1.00;;;;;13.06;76.07;100863.34;5076540;28;45586;-68
2023/05/11 01:29:28;;;;;;;;;1.67;1.00;;;;;13.11;74.83;100856.47;5076929;28;45611;-68
2023/05/11 01:31:56;;;;;;;;;1.67;1.00;;;;;13.05;75.08;100839.69;5076720;28;46358;-67
2023/05/11 01:34:25;;;;;;;;;2.00;1.00;;;;;13.12;75.43;100853.00;5075135;28;45382;-68
2023/05/11 01:36:59;;;;;;;;;1.00;0.00;;;;;13.04;74.36;100846.69;5076410;27;45508;-68
2023/05/11 01:39:41;;;;;;;;;0.67;0.67;;;;;13.05;75.28;100850.19;5076901;28;45556;-68
2023/05/11 01:42:10;;;;;;;;;1.00;0.67;;;;;12.99;75.93;100843.06;5076558;28;46152;-68
2023/05/11 01:44:41;;;;;;;;;1.00;1.00;;;;;12.97;75.64;100846.47;5076342;28;45353;-68
2023/05/11 01:47:09;;;;;;;;;0.67;0.00;;;;;13.02;76.19;100855.38;5075534;28;46059;-68
2023/05/11 01:49:40;;;;;;;;;0.00;0.00;;;;;13.03;76.75;100865.91;5075915;28;45443;-68
2023/05/11 01:52:08;;;;;;;;;2.00;2.00;;;;;13.05;77.08;100874.69;5075908;28;45437;-68
2023/05/11 01:54:37;;;;;;;;;1.00;1.00;;;;;13.03;75.80;100854.50;5076523;28;45475;-71
2023/05/11 01:57:05;;;;;;;;;1.00;1.00;;;;;12.99;75.72;100852.66;5076479;28;45333;-68
2023/05/11 01:59:32;;;;;;;;;1.00;1.00;;;;;13.18;75.07;100870.63;5066866;28;45625;-69
2023/05/11 02:02:00;;;;;;;;;1.00;0.00;;;;;13.18;74.60;100862.75;5064242;28;47032;-68
2023/05/11 02:04:27;;;;;;;;;0.00;0.00;;;;;13.17;74.67;100858.38;5072907;28;45340;-67
2023/05/11 02:06:56;;;;;;;;;1.33;1.00;;;;;13.19;73.45;100855.75;5076284;28;45531;-68
2023/05/11 02:09:23;;;;;;;;;0.33;0.33;;;;;13.04;73.73;100830.94;5076405;28;45573;-68
2023/05/11 02:11:52;;;;;;;;;1.67;1.67;;;;;13.13;73.64;100843.41;5076292;28;45698;-67
2023/05/11 02:14:20;;;;;;;;;0.33;0.33;;;;;13.17;73.68;100858.38;5076001;27;45600;-71
2023/05/11 02:16:48;;;;;;;;;1.00;1.00;;;;;12.99;74.73;100864.06;5076365;28;45989;-68
2023/05/11 02:19:14;;;;;;;;;2.00;1.00;;;;;12.94;74.06;100834.19;5074727;27;45453;-68
2023/05/11 02:21:43;;;;;;;;;1.33;1.00;;;;;13.04;72.91;100843.19;5075906;28;46194;-67
2023/05/11 02:24:09;;;;;;;;;0.00;0.00;;;;;13.15;72.23;100857.44;5075309;28;45471;-68
2023/05/11 02:26:36;;;;;;;;;2.33;1.00;;;;;13.10;71.65;100846.81;5076273;28;45406;-68
2023/05/11 02:29:01;;;;;;;;;1.00;0.00;;;;;13.13;71.86;100844.28;5074976;28;45365;-68
2023/05/11 02:31:28;;;;;;;;;1.00;1.00;;;;;13.21;71.63;100851.44;5075886;27;45673;-68
2023/05/11 02:33:59;;;;;;;;;0.00;0.00;;;;;13.08;71.88;100826.66;5059249;28;45487;-67
2023/05/11 02:36:28;;;;;;;;;1.00;0.00;;;;;13.12;71.19;100833.75;5075752;28;45477;-68
2023/05/11 02:39:08;;;;;;;;;2.00;0.67;;;;;13.17;71.05;100852.22;5071542;28;45406;-67
2023/05/11 02:41:40;;;;;;;;;0.25;0.25;;;;;13.17;71.28;100845.25;5072732;28;45652;-67
2023/05/11 02:44:10;;;;;;;;;0.00;0.00;;;;;13.08;70.99;100831.91;5075606;27;45503;-67
2023/05/11 02:46:39;;;;;;;;;1.00;0.00;;;;;13.10;70.91;100824.97;5076383;28;45577;-68
2023/05/11 02:49:08;;;;;;;;;0.33;0.00;;;;;13.18;70.57;100839.16;5079322;28;45311;-67
2023/05/11 02:51:40;;;;;;;;;1.00;0.67;;;;;13.14;71.04;100838.19;5063723;28;45372;-71
2023/05/11 02:54:11;;;;;;;;;1.00;1.00;;;;;13.11;70.80;100826.72;5064041;28;45499;-67
2023/05/11 02:56:38;;;;;;;;;0.00;0.00;;;;;13.02;71.05;100816.03;5079360;27;45814;-72
2023/05/11 02:59:04;;;;;;;;;1.67;1.00;;;;;13.02;71.45;100805.53;5079585;28;45461;-68
2023/05/11 03:01:30;;;;;;;;;0.00;0.00;;;;;13.08;73.05;100826.66;5079125;28;46026;-68
2023/05/11 03:03:55;;;;;;;;;2.33;1.00;;;;;13.08;71.47;100839.78;5078762;27;45892;-67
2023/05/11 03:06:21;;;;;;;;;2.00;1.00;;;;;13.07;71.97;100827.50;5078996;28;45548;-67
2023/05/11 03:08:47;;;;;;;;;2.00;1.00;;;;;13.05;72.59;100821.31;5079228;28;45532;-67
2023/05/11 03:11:15;;;;;;;;;1.00;0.75;;;;;13.11;71.33;100830.25;5078387;27;46060;-66
2023/05/11 03:13:44;;;;;;;;;1.67;0.33;;;;;13.06;71.09;100810.00;5072428;28;45316;-66
2023/05/11 03:16:11;;;;;;;;;0.00;0.00;;;;;13.06;71.10;100816.13;5067983;28;45431;-67
2023/05/11 03:18:38;;;;;;;;;0.00;0.00;;;;;13.01;70.63;100806.38;5078961;27;45385;-67
2023/05/11 03:21:05;;;;;;;;;1.00;0.00;;;;;12.45;70.57;100715.88;5078611;28;46139;-67
2023/05/11 03:23:31;;;;;;;;;0.33;0.33;;;;;12.93;71.68;100817.56;5078220;27;45461;-66
2023/05/11 03:25:58;;;;;;;;;0.33;0.00;;;;;12.80;71.69;100815.50;5074229;28;45408;-67
2023/05/11 03:28:25;;;;;;;;;1.00;1.00;;;;;12.68;73.38;100813.44;5072988;28;45467;-66
2023/05/11 03:30:52;;;;;;;;;1.00;0.67;;;;;12.60;73.79;100821.97;5078172;28;46173;-67
2023/05/11 03:33:19;;;;;;;;;2.67;1.00;;;;;12.34;73.95;100798.56;5077533;28;45469;-67
2023/05/11 03:35:46;;;;;;;;;0.00;0.00;;;;;12.21;74.46;100799.09;5078893;28;45563;-66
2023/05/11 03:38:14;;;;;;;;;0.00;0.00;;;;;12.25;73.76;100800.94;5078594;28;45378;-67
2023/05/11 03:40:41;;;;;;;;;0.00;0.00;;;;;12.20;73.52;100795.59;5078276;28;45636;-66
2023/05/11 03:43:13;;;;;;;;;2.00;0.00;;;;;12.19;73.50;100796.41;5078573;27;45256;-67
2023/05/11 03:45:41;;;;;;;;;0.00;0.00;;;;;12.10;74.59;100804.91;5077830;27;45385;-67
2023/05/11 03:48:08;;;;;;;;;1.00;1.00;;;;;11.95;75.56;100786.16;5078186;28;45441;-66
2023/05/11 03:50:36;;;;;;;;;1.00;0.33;;;;;12.00;74.65;100789.81;5078379;27;46205;-66
2023/05/11 03:53:04;;;;;;;;;0.00;0.00;;;;;12.15;74.05;100794.56;5077920;28;45522;-66
2023/05/11 03:55:29;;;;;;;;;1.67;0.00;;;;;12.09;73.14;100778.69;5062582;28;45224;-67
2023/05/11 03:57:55;;;;;;;;;1.67;0.00;;;;;12.30;73.08;100800.22;5077335;28;45539;-68
2023/05/11 04:00:20;;;;;;;;;1.33;1.00;;;;;12.16;74.87;100783.25;5078171;27;46258;-70
2023/05/11 04:02:46;;;;;;;;;1.00;0.00;;;;;12.00;75.22;100763.63;5078443;28;45661;-70
2023/05/11 04:05:12;;;;;;;;;1.00;0.00;;;;;12.20;74.07;100795.59;5077710;28;45618;-71
2023/05/11 04:07:38;;;;;;;;;1.00;1.00;;;;;12.06;73.66;100760.28;5076894;28;45636;-67
2023/05/11 04:10:05;;;;;;;;;1.00;1.00;;;;;12.22;74.13;100778.19;5077956;28;46588;-67
2023/05/11 04:12:31;;;;;;;;;1.00;1.00;;;;;12.23;73.97;100794.78;5078023;28;45310;-69
2023/05/11 04:14:57;;;;;;;;;1.00;0.00;;;;;12.06;74.41;100765.53;5072537;28;45425;-67
2023/05/11 04:17:22;;;;;;;;;0.00;0.00;;;;;12.10;74.90;100776.13;5067507;28;45468;-69
2023/05/11 04:19:48;;;;;;;;;1.00;1.00;;;;;12.23;73.98;100774.69;5077325;28;45370;-67
2023/05/11 04:22:13;;;;;;;;;1.00;1.00;;;;;12.32;73.15;100771.47;5077452;28;45499;-69
2023/05/11 04:24:39;;;;;;;;;0.00;0.00;;;;;12.31;72.93;100764.44;5076774;27;45342;-67
2023/05/11 04:27:04;;;;;;;;;1.00;1.00;;;;;12.40;73.13;100772.53;5075844;28;45501;-68
2023/05/11 04:29:30;;;;;;;;;0.00;0.00;;;;;12.46;73.05;100787.53;5077154;28;46080;-70
2023/05/11 04:31:56;;;;;;;;;1.00;0.00;;;;;12.44;73.42;100774.38;5077462;27;45438;-67
2023/05/11 04:34:21;;;;;;;;;1.00;1.00;;;;;12.52;73.24;100767.59;5076703;27;45517;-67
2023/05/11 04:36:48;;;;;;;;;0.67;0.67;;;;;12.45;72.96;100754.31;5076131;27;45456;-67
2023/05/11 04:39:17;;;;;;;;;0.00;0.00;;;;;12.43;72.91;100746.41;5077000;28;45580;-68
2023/05/11 04:41:43;;;;;;;;;1.33;1.00;;;;;12.51;73.38;100760.63;5075866;28;45530;-68
2023/05/11 04:44:09;;;;;;;;;2.00;1.00;;;;;12.54;73.04;100765.03;5076535;27;45346;-70
2023/05/11 04:46:37;;;;;;;;;1.00;0.75;;;;;12.53;72.83;100768.50;5077094;28;45475;-71
2023/05/11 04:49:03;;;;;;;;;0.75;0.75;;;;;12.50;73.00;100760.56;5075781;27;45489;-67
2023/05/11 04:51:29;;;;;;;;;1.00;0.33;;;;;12.61;73.35;100768.69;5074618;28;45821;-66
2023/05/11 04:53:54;;;;;;;;;1.33;1.00;;;;;12.58;73.31;100751.16;5076725;28;45484;-67
2023/05/11 04:56:20;;;;;;;;;2.00;1.00;;;;;12.58;72.37;100747.66;5067719;28;45441;-71
2023/05/11 04:58:46;;;;;;;;;1.00;1.00;;;;;12.63;72.30;100754.75;5071781;28;46419;-67
2023/05/11 05:01:11;;;;;;;;;1.33;1.00;;;;;12.64;72.54;100751.31;5073984;28;45499;-68
2023/05/11 05:03:37;;;;;;;;;1.00;1.00;;;;;12.70;73.36;100758.44;5076238;27;45606;-67
2023/05/11 05:06:03;;;;;;;;;1.67;0.00;;;;;12.72;72.41;100767.22;5076240;28;45408;-68
2023/05/11 05:08:28;;;;;;;;;2.75;1.25;;;;;12.77;72.36;100773.44;5076475;27;46073;-68
2023/05/11 05:10:54;;;;;;;;;1.00;1.00;;;;;12.65;72.33;100766.22;5076560;27;45377;-68
2023/05/11 05:13:19;;;;;;;;;1.00;1.00;;;;;12.66;74.48;100795.91;5076300;27;45514;-70
2023/05/11 05:15:45;;;;;;;;;2.00;1.00;;;;;12.59;76.05;100818.44;5075653;27;45480;-67
2023/05/11 05:18:10;;;;;;;;;1.00;1.00;;;;;12.57;74.67;100791.31;5076199;28;45492;-70
2023/05/11 05:20:36;;;;;;;;;1.00;0.33;;;;;12.61;72.52;100793.16;5076008;27;45551;-72
2023/05/11 05:23:01;;;;;;;;;1.00;1.00;;;;;12.58;74.21;100800.94;5076650;28;45402;-67
2023/05/11 05:25:27;;;;;;;;;1.00;0.00;;;;;12.59;73.79;100797.47;5075548;28;45475;-68
2023/05/11 05:27:53;;;;;;;;;13.75;9.50;;;;;12.61;74.01;100787.03;5076210;27;45468;-68
2023/05/11 05:30:18;;;;;;;;;16.50;13.00;;;;;12.54;73.69;100780.75;5076047;28;45417;-67
2023/05/11 05:32:44;;;;;;;;;45.75;33.50;;;;;12.50;74.29;100773.66;5076152;28;45334;-70
2023/05/11 05:35:10;;;;;;;;;5.00;4.50;;;;;12.62;74.68;100791.44;5063286;28;45496;-70
2023/05/11 05:37:36;;;;;;;;;6.25;5.25;;;;;12.67;74.11;100784.56;5062922;28;46547;-71
2023/05/11 05:40:03;;;;;;;;;2.25;2.00;;;;;12.77;73.71;100789.19;5057848;28;45394;-70
2023/05/11 05:42:28;;;;;;;;;2.75;2.75;;;;;12.79;74.05;100805.84;5059379;28;45465;-71
2023/05/11 05:44:54;;;;;;;;;1.00;1.00;;;;;12.90;74.02;100806.13;5042343;28;45564;-72
2023/05/11 05:47:19;;;;;;;;;2.00;2.00;;;;;12.85;74.90;100781.50;5065874;28;46082;-68
2023/05/11 05:49:45;;;;;;;;;3.00;2.33;;;;;13.06;73.82;100783.78;5064898;28;45367;-67
2023/05/11 05:52:10;;;;;;;;;4.75;3.75;;;;;13.14;73.08;100797.94;5065663;28;45328;-67
2023/05/11 05:54:36;;;;;;;;;6.75;6.00;;;;;13.19;72.98;100808.53;5064551;28;45518;-68
2023/05/11 05:57:01;;;;;;;;;2.00;2.00;;;;;13.07;73.03;100799.56;5041945;28;46881;-67
2023/05/11 05:59:27;;;;;;;;;1.33;1.00;;;;;13.09;73.06;100792.63;5061853;28;46669;-68
2023/05/11 06:01:52;;;;;;;;;3.67;2.00;;;;;13.10;73.19;100806.59;5055346;28;45190;-68
2023/05/11 06:04:18;;;;;;;;;2.00;2.00;;;;;12.97;73.22;100800.19;5056266;28;45695;-72
2023/05/11 06:06:44;;;;;;;;;4.00;3.00;;;;;12.89;74.15;100801.72;5054758;28;46227;-67
2023/05/11 06:09:10;;;;;;;;;1.00;1.00;;;;;12.78;75.37;100806.69;5055885;28;45796;-68
2023/05/11 06:11:37;;;;;;;;;1.00;1.00;;;;;12.85;75.23;100820.84;5054748;28;45624;-68
2023/05/11 06:14:02;;;;;;;;;1.25;1.25;;;;;12.89;74.60;100820.97;5055400;28;45546;-69
2023/05/11 06:16:29;;;;;;;;;3.00;2.75;;;;;12.85;74.45;100811.25;5056165;28;46134;-70
2023/05/11 06:18:54;;;;;;;;;2.33;2.33;;;;;12.98;74.00;100830.78;5023080;28;45518;-72
2023/05/11 06:21:20;;;;;;;;;3.00;2.00;;;;;12.96;74.24;100811.50;5055649;28;45437;-68
2023/05/11 06:23:48;;;;;;;;;3.50;2.00;;;;;13.13;73.42;100825.94;5057920;28;45489;-71
2023/05/11 06:26:14;;;;;;;;;3.00;2.00;;;;;12.70;73.52;100734.84;5039615;28;46556;-70
2023/05/11 06:28:40;;;;;;;;;5.50;4.50;;;;;13.32;72.92;100814.16;5058096;28;45414;-68
2023/05/11 06:31:06;;;;;;;;;4.33;4.00;;;;;13.38;72.29;100788.91;5036893;28;45530;-69
2023/05/11 06:33:32;;;;;;;;;2.00;1.00;;;;;13.61;71.49;100819.19;5059371;28;45486;-69
2023/05/11 06:35:57;;;;;;;;;3.00;2.00;;;;;13.59;71.73;100810.38;5071301;28;45769;-72
2023/05/11 06:38:23;;;;;;;;;3.00;2.00;;;;;13.61;70.96;100808.69;5078424;27;45416;-68
2023/05/11 06:40:52;;;;;;;;;2.33;2.00;;;;;13.66;70.73;100809.66;5078679;28;45381;-71
2023/05/11 06:43:18;;;;;;;;;2.00;1.67;;;;;13.68;70.78;100812.31;5078256;27;45449;-72
2023/05/11 06:45:44;;;;;;;;;1.00;1.00;;;;;13.57;70.62;100806.84;5077070;27;46752;-70
2023/05/11 06:48:10;;;;;;;;;0.67;0.67;;;;;13.19;71.38;100788.47;5066186;28;45606;-73
2023/05/11 06:50:35;;;;;;;;;1.67;1.00;;;;;13.46;70.36;100824.97;5078172;28;45564;-69
2023/05/11 06:53:01;;;;;;;;;2.00;2.00;;;;;13.44;70.49;100817.91;5078854;28;45602;-70
2023/05/11 06:55:26;;;;;;;;;4.00;4.00;;;;;13.48;70.40;100818.00;5078055;28;46458;-68
2023/05/11 06:57:52;;;;;;;;;2.00;1.00;;;;;13.39;70.27;100794.19;5078502;27;45511;-68
2023/05/11 07:00:18;;;;;;;;;3.67;2.00;;;;;13.57;70.70;100826.94;5077043;28;45437;-72
2023/05/11 07:02:43;;;;;;;;;2.00;1.00;;;;;13.65;70.54;100814.88;5077672;28;45331;-68
2023/05/11 07:05:09;;;;;;;;;0.00;0.00;;;;;14.01;68.94;100832.28;5077976;27;46595;-68
2023/05/11 07:07:34;;;;;;;;;1.67;1.00;;;;;14.35;67.88;100812.78;5077104;28;45679;-68
2023/05/11 07:09:59;;;;;;;;;0.67;0.67;;;;;14.76;67.51;100806.53;5078872;27;45362;-68
2023/05/11 07:12:25;;;;;;;;;1.00;1.00;;;;;15.07;66.89;100819.31;5077935;27;45432;-69
2023/05/11 07:14:51;;;;;;;;;1.67;1.00;;;;;15.64;65.48;100814.03;5067665;28;47913;-67
2023/05/11 07:17:16;;;;;;;;;1.33;1.33;;;;;19.08;57.46;100810.19;5076206;28;45373;-69
2023/05/11 07:19:41;;;;;;;;;1.00;1.00;;;;;22.67;49.54;100802.91;5078028;27;45546;-69
2023/05/11 07:22:07;;;;;;;;;4.00;2.00;;;;;23.56;49.37;100803.19;5075505;28;45720;-68
2023/05/11 07:24:32;;;;;;;;;3.67;3.00;;;;;24.89;45.57;100788.69;5078083;28;46005;-68
2023/05/11 07:26:58;;;;;;;;;2.33;2.00;;;;;26.48;42.16;100802.91;5077790;27;46036;-68
2023/05/11 07:29:24;;;;;;;;;5.00;4.33;;;;;28.31;38.89;100805.41;5077263;28;45308;-68
2023/05/11 07:31:49;;;;;;;;;4.00;2.00;;;;;29.57;34.70;100804.63;5076458;28;45508;-68
2023/05/11 07:34:15;;;;;;;;;3.00;2.00;;;;;30.80;33.78;100795.25;5076206;28;46565;-69
2023/05/11 07:36:41;;;;;;;;;0.00;0.00;;;;;32.04;32.49;100804.06;5077647;27;45518;-69
2023/05/11 07:39:06;;;;;;;;;0.00;0.00;;;;;32.86;29.85;100787.63;5074979;28;45613;-68
2023/05/11 07:41:32;;;;;;;;;0.33;0.00;;;;;33.55;29.50;100808.81;5073443;28;45483;-70
2023/05/11 07:44:00;;;;;;;;;4.67;4.67;;;;;33.53;28.97;100802.63;5078042;28;45601;-69
2023/05/11 07:46:25;;;;;;;;;1.00;0.00;;;;;32.48;29.39;100781.75;5078204;28;45417;-70
2023/05/11 07:48:51;;;;;;;;;0.67;0.00;;;;;32.89;29.79;100798.28;5078047;27;45464;-69
2023/05/11 07:51:16;;;;;;;;;0.00;0.00;;;;;32.47;29.57;100799.81;5077931;27;45460;-69
2023/05/11 07:53:42;;;;;;;;;2.00;2.00;;;;;31.84;29.48;100787.09;5077949;27;46288;-69
2023/05/11 07:56:08;;;;;;;;;1.33;1.00;;;;;29.97;32.28;100789.38;5077807;27;46216;-70
2023/05/11 07:58:34;;;;;;;;;1.00;1.00;;;;;28.64;33.34;100783.50;5077031;28;45500;-69
2023/05/11 08:01:00;;;;;;;;;2.00;0.00;;;;;27.24;36.65;100795.97;5078722;27;45452;-70
2023/05/11 08:03:26;;;;;;;;;1.00;1.00;;;;;26.37;37.85;100781.84;5078513;27;45509;-70
2023/05/11 08:05:51;;;;;;;;;0.67;0.67;;;;;25.78;38.73;100774.66;5078726;27;45427;-69
2023/05/11 08:08:17;;;;;;;;;0.00;0.00;;;;;25.47;38.73;100796.09;5078813;27;45357;-69
2023/05/11 08:10:42;;;;;;;;;0.00;0.00;;;;;24.91;38.90;100801.97;5094428;27;46089;-69
2023/05/11 08:13:08;;;;;;;;;1.00;1.00;;;;;24.70;39.88;100772.22;5077283;28;47227;-70
2023/05/11 08:15:33;;;;;;;;;0.00;0.00;;;;;24.70;40.41;100790.03;5078350;27;45839;-69
2023/05/11 08:18:00;;;;;;;;;0.00;0.00;;;;;24.95;39.69;100788.50;5077803;28;45420;-71
2023/05/11 08:20:25;;;;;;;;;1.00;1.00;;;;;24.51;38.70;100779.81;5076774;27;45494;-69
2023/05/11 08:22:51;;;;;;;;;1.00;1.00;;;;;24.25;39.96;100767.03;5076877;28;45314;-69
2023/05/11 08:25:17;;;;;;;;;0.00;0.00;;;;;24.68;39.45;100792.75;5077266;27;45294;-69
2023/05/11 08:27:42;;;;;;;;;1.00;0.00;;;;;24.77;38.59;100786.28;5077721;27;45303;-70
2023/05/11 08:30:08;;;;;;;;;1.00;0.00;;;;;25.49;38.55;100778.22;5078023;27;45780;-70
2023/05/11 08:32:35;;;;;;;;;0.00;0.00;;;;;25.49;37.66;100780.88;5077284;27;45682;-70
2023/05/11 08:35:02;;;;;;;;;1.00;0.33;;;;;27.06;36.44;100763.50;5074785;28;45585;-69
2023/05/11 08:37:29;;;;;;;;;1.67;1.00;;;;;27.62;34.35;100758.84;5075903;28;45342;-69
2023/05/11 08:39:54;;;;;;;;;1.00;1.00;;;;;28.12;34.48;100750.66;5077232;27;45505;-69
2023/05/11 08:42:23;;;;;;;;;2.00;1.00;;;;;29.76;32.87;100755.34;5076517;27;45950;-68
2023/05/11 08:44:54;;;;;;;;;1.00;1.00;;;;;30.02;30.64;100759.50;5072638;28;46306;-68
2023/05/11 08:47:20;;;;;;;;;4.00;4.00;;;;;28.27;33.05;100757.22;5068991;28;45315;-68
2023/05/11 08:49:47;;;;;;;;;1.00;1.00;;;;;28.09;33.08;100745.41;5075942;28;45579;-70
2023/05/11 08:52:14;;;;;;;;;3.00;2.33;;;;;29.60;32.16;100758.72;5076394;27;46496;-69
2023/05/11 08:54:40;;;;;;;;;11.00;10.00;;;;;30.22;29.76;100748.66;5076881;27;45524;-68
2023/05/11 08:57:06;;;;;;;;;5.33;5.00;;;;;29.86;31.02;100745.91;5076181;28;45476;-68
2023/05/11 08:59:33;;;;;;;;;2.00;1.67;;;;;29.14;32.58;100763.47;5075676;28;45578;-71
2023/05/11 09:02:00;;;;;;;;;1.00;0.00;;;;;27.81;35.30;100751.81;5075189;28;48048;-70
2023/05/11 09:04:26;;;;;;;;;10.00;9.67;;;;;26.72;36.95;100743.22;5076137;28;45600;-70
2023/05/11 09:06:53;;;;;;;;;0.00;0.00;;;;;25.85;37.89;100744.13;5076632;28;45442;-68
2023/05/11 09:09:19;;;;;;;;;2.00;1.00;;;;;25.25;39.34;100744.97;5076921;27;45527;-68
2023/05/11 09:11:46;;;;;;;;;1.00;0.00;;;;;24.44;39.95;100689.19;5092540;27;45440;-68
2023/05/11 09:14:12;;;;;;;;;2.00;2.00;;;;;24.09;41.77;100782.50;5077452;27;45374;-68
2023/05/11 09:16:38;;;;;;;;;0.00;0.00;;;;;23.19;42.89;100814.50;5076657;28;45371;-68
2023/05/11 09:19:04;;;;;;;;;1.00;0.33;;;;;20.20;48.69;100823.13;5077255;27;45487;-68
2023/05/11 09:21:30;;;;;;;;;0.00;0.00;;;;;20.18;48.55;100848.78;5076726;27;46614;-67
2023/05/11 09:23:58;;;;;;;;;0.00;0.00;;;;;19.58;49.31;100825.13;5076819;27;45538;-67
2023/05/11 09:26:25;;;;;;;;;0.00;0.00;;;;;19.18;51.58;100845.47;5076331;27;45470;-69
2023/05/11 09:28:56;;;;;;;;;1.00;1.00;;;;;18.92;53.02;100853.41;5077274;27;45351;-69
2023/05/11 09:31:35;;;;;;;;;0.00;0.00;;;;;18.86;51.39;100836.66;5075970;27;45558;-69
2023/05/11 09:34:18;;;;;;;;;0.00;0.00;;;;;18.64;52.32;100835.75;5056219;28;45888;-68
2023/05/11 09:36:45;;;;;;;;;1.33;1.33;;;;;18.45;49.72;100836.56;5055546;28;45522;-71
2023/05/11 09:39:12;;;;;;;;;1.00;1.00;;;;;18.34;52.05;100833.88;5074443;28;45510;-71
2023/05/11 09:41:39;;;;;;;;;1.00;0.00;;;;;18.48;51.01;100805.72;5071631;28;46990;-71
2023/05/11 09:44:14;;;;;;;;;9.67;7.67;;;;;18.51;53.22;100815.41;5074548;27;45465;-71
2023/05/11 09:46:41;;;;;;;;;16.33;15.67;;;;;18.63;52.29;100820.72;5073311;27;45493;-70
2023/05/11 09:49:08;;;;;;;;;2.67;2.67;;;;;18.68;52.41;100823.38;5086770;27;45408;-69
2023/05/11 09:51:36;;;;;;;;;2.00;2.00;;;;;19.33;50.83;100820.75;5073923;28;46685;-71
2023/05/11 09:54:16;;;;;;;;;2.00;2.00;;;;;19.56;52.00;100811.00;5075033;28;45353;-71
2023/05/11 09:56:55;;;;;;;;;4.00;3.00;;;;;19.91;50.14;100817.94;5081374;28;45339;-71
2023/05/11 09:59:39;;;;;;;;;3.00;3.00;;;;;20.02;50.06;100791.41;5082362;27;45478;-72
2023/05/11 10:02:24;;;;;;;;;2.00;2.00;;;;;20.75;48.54;100803.38;5080492;28;45450;-70
2023/05/11 10:04:52;;;;;;;;;8.00;7.00;;;;;21.41;46.87;100792.13;5079015;28;45378;-69
2023/05/11 10:07:33;;;;;;;;;15.33;13.67;;;;;22.56;44.99;100803.09;5082222;27;45846;-71
2023/05/11 10:10:07;;;;;;;;;18.33;14.00;;;;;22.97;42.58;100800.66;5081222;28;45472;-70
2023/05/11 10:12:36;;;;;;;;;15.67;14.67;;;;;22.89;44.99;100787.47;5080025;28;45662;-69
2023/05/11 10:15:07;;;;;;;;;1.33;1.00;;;;;23.09;43.65;100776.50;5080157;28;45544;-70
2023/05/11 10:17:34;;;;;;;;;8.00;6.67;;;;;23.39;44.30;100784.81;5082600;27;45456;-69
2023/05/11 10:20:00;;;;;;;;;11.33;10.67;;;;;23.79;43.15;100789.38;5082609;27;45701;-73
2023/05/11 10:22:28;;;;;;;;;10.33;9.33;;;;;24.22;42.22;100785.78;5081882;27;45547;-72
2023/05/11 10:24:56;;;;;;;;;5.33;5.00;;;;;24.88;41.54;100778.03;5082027;27;45735;-72
2023/05/11 10:27:22;;;;;;;;;2.00;2.00;;;;;24.76;40.18;100781.88;5082537;28;45430;-72
2023/05/11 10:29:49;;;;;;;;;9.33;8.33;;;;;24.95;42.23;100774.28;5082668;27;45633;-71
2023/05/11 10:32:16;;;;;;;;;3.33;3.33;;;;;24.75;41.38;100758.72;5081997;27;46114;-71
2023/05/11 10:34:43;;;;;;;;;7.33;6.67;;;;;24.72;40.81;100757.03;5079079;28;45445;-69
2023/05/11 10:37:09;;;;;;;;;3.00;3.00;;;;;24.35;42.43;100765.91;5080805;27;45539;-68
2023/05/11 10:39:42;;;;;;;;;2.33;1.33;;;;;24.13;42.98;100775.31;5081484;27;45547;-69
2023/05/11 10:42:40;;;;;;;;;1.00;1.00;;;;;23.85;43.09;100767.91;5081307;28;46188;-69
2023/05/11 10:45:23;;;;;;;;;3.00;2.33;;;;;23.39;44.86;100767.03;5080153;28;45534;-70
2023/05/11 10:48:15;;;;;;;;;1.00;0.00;;;;;23.03;44.29;100771.28;5075588;28;45603;-70
2023/05/11 10:51:11;;;;;;;;;0.00;0.00;;;;;22.73;45.21;100767.31;5052743;27;45427;-71
2023/05/11 10:53:49;;;;;;;;;0.00;0.00;;;;;22.37;45.48;100762.56;5079576;28;45650;-72
2023/05/11 10:56:29;;;;;;;;;0.00;0.00;;;;;22.03;45.80;100778.97;5081868;28;45540;-71
2023/05/11 10:59:42;;;;;;;;;0.00;0.00;;;;;22.00;46.83;100772.81;5082170;27;45390;-71
2023/05/11 11:02:09;;;;;;;;;0.00;0.00;;;;;22.58;45.93;100758.69;5075444;28;45311;-70
2023/05/11 11:04:45;;;;;;;;;0.00;0.00;;;;;23.16;44.02;100743.50;5081960;27;45543;-71
2023/05/11 11:07:18;;;;;;;;;4.00;3.00;;;;;23.54;44.20;100760.53;5078391;28;45423;-69
2023/05/11 11:10:05;;;;;;;;;4.00;3.00;;;;;23.85;42.91;100770.59;5076877;28;45479;-68
2023/05/11 11:12:33;;;;;;;;;1.00;1.00;;;;;23.63;42.40;100767.44;5092424;27;45477;-68
2023/05/11 11:15:01;;;;;;;;;1.00;1.00;;;;;22.97;43.38;100774.88;5078386;27;46161;-69
2023/05/11 11:17:33;;;;;;;;;1.00;1.00;;;;;22.45;46.27;100773.09;5085871;27;45607;-68
2023/05/11 11:20:00;;;;;;;;;0.00;0.00;;;;;22.05;48.32;100789.59;5078862;28;45528;-68
2023/05/11 11:22:37;;;;;;;;;2.00;1.00;;;;;21.67;48.30;100790.09;5079824;27;45207;-68
2023/05/11 11:25:10;;;;;;;;;1.00;1.00;;;;;21.40;48.91;100781.50;5079230;27;46553;-68
2023/05/11 11:27:38;;;;;;;;;1.00;0.33;;;;;21.35;49.15;100788.66;5079023;27;45512;-68